sensor_id;sensor_type;location;lat;lon;timestamp;pressure;altitude;pressure_sealevel;temperature;humidity
18795;BME280;29610;49.022;12.114;2023-05-28T00:00:07;97959.91;;;13.09;100.00
18795;BME280;29610;49.022;12.114;2023-05-28T00:02:42;97963.56;;;13.13;100.00
18795;BME280;29610;49.022;12.114;2023-05-28T00:05:11;97962.03;;;13.03;100.00
18795;BME280;29610;49.022;12.114;2023-05-28T00:07:40;97958.63;;;13.06;100.00
18795;BME280;29610;49.022;12.114;2023-05-28T00:10:09;97949.66;;;12.97;100.00
18795;BME280;29610;49.022;12.114;2023-05-28T00:12:38;97953.84;;;12.95;100.00
18795;BME280;29610;49.022;12.114;2023-05-28T00:15:09;97952.63;;;12.84;100.00
18795;BME280;29610;49.022;12.114;2023-05-28T00:17:38;97943.13;;;12.90;100.00
18795;BME280;29610;49.022;12.114;2023-05-28T00:20:07;97953.75;;;12.83;100.00
18795;BME280;29610;49.022;12.114;2023-05-28T00:22:37;97954.75;;;12.49;100.00
18795;BME280;29610;49.022;12.114;2023-05-28T00:25:06;97955.34;;;12.55;100.00
18795;BME280;29610;49.022;12.114;2023-05-28T00:27:35;97945.03;;;12.31;100.00
18795;BME280;29610;49.022;12.114;2023-05-28T00:30:05;97944.94;;;12.48;100.00
18795;BME280;29610;49.022;12.114;2023-05-28T00:32:35;97941.88;;;12.50;100.00
18795;BME280;29610;49.022;12.114;2023-05-28T00:35:05;97950.56;;;12.43;100.00
18795;BME280;29610;49.022;12.114;2023-05-28T00:37:33;97943.41;;;12.30;100.00
18795;BME280;29610;49.022;12.114;2023-05-28T00:40:02;97944.06;;;12.27;100.00
18795;BME280;29610;49.022;12.114;2023-05-28T00:42:31;97942.31;;;12.23;100.00
18795;BME280;29610;49.022;12.114;2023-05-28T00:45:00;97941.50;;;12.31;100.00
18795;BME280;29610;49.022;12.114;2023-05-28T00:47:30;97943.72;;;12.29;100.00
18795;BME280;29610;49.022;12.114;2023-05-28T00:50:01;97945.38;;;12.13;100.00
18795;BME280;29610;49.022;12.114;2023-05-28T00:52:30;97940.56;;;12.18;100.00
18795;BME280;29610;49.022;12.114;2023-05-28T00:54:58;97941.72;;;12.17;100.00
18795;BME280;29610;49.022;12.114;2023-05-28T00:57:27;97945.38;;;12.13;100.00
18795;BME280;29610;49.022;12.114;2023-05-28T00:59:56;97943.78;;;12.12;100.00
18795;BME280;29610;49.022;12.114;2023-05-28T01:02:32;97944.97;;;11.85;100.00
18795;BME280;29610;49.022;12.114;2023-05-28T01:05:02;97946.28;;;11.79;100.00
18795;BME280;29610;49.022;12.114;2023-05-28T01:07:32;97943.41;;;11.75;100.00
18795;BME280;29610;49.022;12.114;2023-05-28T01:10:01;97943.53;;;11.88;100.00
18795;BME280;29610;49.022;12.114;2023-05-28T01:12:31;97942.41;;;11.89;100.00
18795;BME280;29610;49.022;12.114;2023-05-28T01:15:01;97939.88;;;11.84;100.00
18795;BME280;29610;49.022;12.114;2023-05-28T01:17:30;97940.50;;;11.81;100.00
18795;BME280;29610;49.022;12.114;2023-05-28T01:19:59;97936.81;;;11.68;100.00
18795;BME280;29610;49.022;12.114;2023-05-28T01:22:45;97938.13;;;11.79;100.00
18795;BME280;29610;49.022;12.114;2023-05-28T01:25:18;97938.25;;;11.57;100.00
18795;BME280;29610;49.022;12.114;2023-05-28T01:27:46;97931.38;;;11.76;100.00
18795;BME280;29610;49.022;12.114;2023-05-28T01:30:17;97931.84;;;11.87;100.00
18795;BME280;29610;49.022;12.114;2023-05-28T01:32:45;97927.34;;;11.91;100.00
18795;BME280;29610;49.022;12.114;2023-05-28T01:35:14;97928.97;;;11.75;100.00
18795;BME280;29610;49.022;12.114;2023-05-28T01:37:48;97925.75;;;11.73;100.00
18795;BME280;29610;49.022;12.114;2023-05-28T01:40:22;97930.56;;;11.93;100.00
18795;BME280;29610;49.022;12.114;2023-05-28T01:42:52;97927.03;;;11.84;100.00
18795;BME280;29610;49.022;12.114;2023-05-28T01:45:23;97922.22;;;11.90;100.00
18795;BME280;29610;49.022;12.114;2023-05-28T01:47:54;97923.16;;;11.94;100.00
18795;BME280;29610;49.022;12.114;2023-05-28T01:50:23;97926.84;;;11.89;100.00
18795;BME280;29610;49.022;12.114;2023-05-28T01:52:53;97920.47;;;11.85;100.00
18795;BME280;29610;49.022;12.114;2023-05-28T01:55:23;97918.06;;;11.84;100.00
18795;BME280;29610;49.022;12.114;2023-05-28T01:57:52;97916.94;;;11.85;100.00
18795;BME280;29610;49.022;12.114;2023-05-28T02:00:21;97919.81;;;11.88;100.00
18795;BME280;29610;49.022;12.114;2023-05-28T02:02:52;97920.97;;;11.87;100.00
18795;BME280;29610;49.022;12.114;2023-05-28T02:05:21;97916.13;;;11.84;100.00
18795;BME280;29610;49.022;12.114;2023-05-28T02:07:50;97915.34;;;11.84;100.00
18795;BME280;29610;49.022;12.114;2023-05-28T02:10:21;97912.31;;;11.76;100.00
18795;BME280;29610;49.022;12.114;2023-05-28T02:12:52;97913.13;;;11.68;100.00
18795;BME280;29610;49.022;12.114;2023-05-28T02:15:21;97911.38;;;11.64;100.00
18795;BME280;29610;49.022;12.114;2023-05-28T02:17:50;97919.19;;;11.57;100.00
18795;BME280;29610;49.022;12.114;2023-05-28T02:20:18;97920.69;;;11.63;100.00
18795;BME280;29610;49.022;12.114;2023-05-28T02:22:49;97917.97;;;11.63;100.00
18795;BME280;29610;49.022;12.114;2023-05-28T02:25:18;97920.16;;;11.61;100.00
18795;BME280;29610;49.022;12.114;2023-05-28T02:27:48;97917.28;;;11.57;100.00
18795;BME280;29610;49.022;12.114;2023-05-28T02:30:19;97913.63;;;11.53;100.00
18795;BME280;29610;49.022;12.114;2023-05-28T02:32:48;97915.69;;;11.39;100.00
18795;BME280;29610;49.022;12.114;2023-05-28T02:35:16;97917.13;;;11.54;100.00
18795;BME280;29610;49.022;12.114;2023-05-28T02:37:45;97910.09;;;11.44;100.00
18795;BME280;29610;49.022;12.114;2023-05-28T02:40:14;97914.41;;;11.45;100.00
18795;BME280;29610;49.022;12.114;2023-05-28T02:42:42;97916.16;;;11.50;100.00
18795;BME280;29610;49.022;12.114;2023-05-28T02:45:14;97916.00;;;11.46;100.00
18795;BME280;29610;49.022;12.114;2023-05-28T02:47:43;97910.72;;;11.41;100.00
18795;BME280;29610;49.022;12.114;2023-05-28T02:50:12;97908.50;;;11.43;100.00
18795;BME280;29610;49.022;12.114;2023-05-28T02:53:02;97908.31;;;11.40;100.00
18795;BME280;29610;49.022;12.114;2023-05-28T02:55:31;97908.97;;;11.28;100.00
18795;BME280;29610;49.022;12.114;2023-05-28T02:58:01;97913.63;;;11.28;100.00
18795;BME280;29610;49.022;12.114;2023-05-28T03:00:30;97917.16;;;11.20;100.00
18795;BME280;29610;49.022;12.114;2023-05-28T03:03:00;97917.94;;;11.12;100.00
18795;BME280;29610;49.022;12.114;2023-05-28T03:05:29;97916.31;;;11.11;100.00
18795;BME280;29610;49.022;12.114;2023-05-28T03:07:58;97908.03;;;11.07;100.00
18795;BME280;29610;49.022;12.114;2023-05-28T03:10:27;97922.06;;;11.09;100.00
18795;BME280;29610;49.022;12.114;2023-05-28T03:12:55;97917.78;;;11.08;100.00
18795;BME280;29610;49.022;12.114;2023-05-28T03:15:24;97915.84;;;11.09;100.00
18795;BME280;29610;49.022;12.114;2023-05-28T03:17:54;97920.63;;;11.03;100.00
18795;BME280;29610;49.022;12.114;2023-05-28T03:20:26;97910.56;;;11.12;100.00
18795;BME280;29610;49.022;12.114;2023-05-28T03:22:57;97917.78;;;11.08;100.00
18795;BME280;29610;49.022;12.114;2023-05-28T03:25:26;97912.97;;;11.05;100.00
18795;BME280;29610;49.022;12.114;2023-05-28T03:27:55;97919.38;;;11.01;100.00
18795;BME280;29610;49.022;12.114;2023-05-28T03:30:34;97917.44;;;10.93;100.00
18795;BME280;29610;49.022;12.114;2023-05-28T03:33:03;97911.69;;;10.94;100.00
18795;BME280;29610;49.022;12.114;2023-05-28T03:35:33;97919.97;;;10.98;100.00
18795;BME280;29610;49.022;12.114;2023-05-28T03:38:02;97916.28;;;10.85;100.00
18795;BME280;29610;49.022;12.114;2023-05-28T03:40:30;97918.06;;;10.90;100.00
18795;BME280;29610;49.022;12.114;2023-05-28T03:42:59;97912.13;;;10.96;100.00
18795;BME280;29610;49.022;12.114;2023-05-28T03:45:28;97918.72;;;11.04;100.00
18795;BME280;29610;49.022;12.114;2023-05-28T03:47:57;97920.97;;;11.02;100.00
18795;BME280;29610;49.022;12.114;2023-05-28T03:50:26;97921.78;;;11.02;100.00
18795;BME280;29610;49.022;12.114;2023-05-28T03:52:56;97913.13;;;11.09;100.00
18795;BME280;29610;49.022;12.114;2023-05-28T03:55:25;97918.25;;;11.19;100.00
18795;BME280;29610;49.022;12.114;2023-05-28T03:57:54;97913.94;;;11.18;100.00
18795;BME280;29610;49.022;12.114;2023-05-28T04:00:23;97910.75;;;11.24;100.00
18795;BME280;29610;49.022;12.114;2023-05-28T04:02:52;97911.69;;;11.37;100.00
18795;BME280;29610;49.022;12.114;2023-05-28T04:05:20;97917.47;;;11.35;100.00
18795;BME280;29610;49.022;12.114;2023-05-28T04:07:49;97908.31;;;11.40;100.00
18795;BME280;29610;49.022;12.114;2023-05-28T04:10:19;97911.69;;;11.45;100.00
18795;BME280;29610;49.022;12.114;2023-05-28T04:12:48;97910.41;;;11.51;100.00
18795;BME280;29610;49.022;12.114;2023-05-28T04:15:16;97908.13;;;11.62;100.00
18795;BME280;29610;49.022;12.114;2023-05-28T04:17:45;97912.81;;;11.53;100.00
18795;BME280;29610;49.022;12.114;2023-05-28T04:20:14;97915.53;;;11.61;100.00
18795;BME280;29610;49.022;12.114;2023-05-28T04:22:43;97912.97;;;11.73;100.00
18795;BME280;29610;49.022;12.114;2023-05-28T04:25:11;97919.50;;;11.98;100.00
18795;BME280;29610;49.022;12.114;2023-05-28T04:27:42;97919.44;;;12.15;100.00
18795;BME280;29610;49.022;12.114;2023-05-28T04:30:12;97912.56;;;12.09;100.00
18795;BME280;29610;49.022;12.114;2023-05-28T04:32:40;97904.16;;;12.31;100.00
18795;BME280;29610;49.022;12.114;2023-05-28T04:35:09;97908.69;;;12.48;100.00
18795;BME280;29610;49.022;12.114;2023-05-28T04:37:38;97909.81;;;12.55;100.00
18795;BME280;29610;49.022;12.114;2023-05-28T04:40:08;97910.47;;;12.52;100.00
18795;BME280;29610;49.022;12.114;2023-05-28T04:42:42;97904.38;;;12.47;100.00
18795;BME280;29610;49.022;12.114;2023-05-28T04:45:11;97905.06;;;12.73;100.00
18795;BME280;29610;49.022;12.114;2023-05-28T04:47:43;97908.66;;;12.85;100.00
18795;BME280;29610;49.022;12.114;2023-05-28T04:50:12;97904.28;;;12.93;100.00
18795;BME280;29610;49.022;12.114;2023-05-28T04:52:41;97905.09;;;12.93;100.00
18795;BME280;29610;49.022;12.114;2023-05-28T04:55:09;97909.72;;;13.22;100.00
18795;BME280;29610;49.022;12.114;2023-05-28T04:57:39;97908.38;;;13.28;100.00
18795;BME280;29610;49.022;12.114;2023-05-28T05:00:11;97910.44;;;13.31;100.00
18795;BME280;29610;49.022;12.114;2023-05-28T05:02:41;97904.63;;;13.53;100.00
18795;BME280;29610;49.022;12.114;2023-05-28T05:05:10;97903.84;;;13.53;100.00
18795;BME280;29610;49.022;12.114;2023-05-28T05:07:40;97906.41;;;13.70;100.00
18795;BME280;29610;49.022;12.114;2023-05-28T05:10:10;97911.41;;;13.68;100.00
18795;BME280;29610;49.022;12.114;2023-05-28T05:12:38;97907.47;;;13.77;100.00
18795;BME280;29610;49.022;12.114;2023-05-28T05:15:09;97908.16;;;13.54;100.00
18795;BME280;29610;49.022;12.114;2023-05-28T05:17:38;97904.28;;;13.75;100.00
18795;BME280;29610;49.022;12.114;2023-05-28T05:20:08;97904.91;;;13.60;100.00
18795;BME280;29610;49.022;12.114;2023-05-28T05:22:37;97911.06;;;13.69;100.00
18795;BME280;29610;49.022;12.114;2023-05-28T05:25:07;97916.44;;;13.66;100.00
18795;BME280;29610;49.022;12.114;2023-05-28T05:27:37;97913.06;;;13.81;100.00
18795;BME280;29610;49.022;12.114;2023-05-28T05:30:08;97906.84;;;13.92;100.00
18795;BME280;29610;49.022;12.114;2023-05-28T05:32:37;97908.19;;;13.86;100.00
18795;BME280;29610;49.022;12.114;2023-05-28T05:35:08;97903.00;;;14.05;100.00
18795;BME280;29610;49.022;12.114;2023-05-28T05:37:56;97911.16;;;14.38;100.00
18795;BME280;29610;49.022;12.114;2023-05-28T05:40:45;97909.44;;;14.33;100.00
18795;BME280;29610;49.022;12.114;2023-05-28T05:43:32;97907.53;;;14.58;100.00
18795;BME280;29610;49.022;12.114;2023-05-28T05:46:02;97910.84;;;14.76;100.00
18795;BME280;29610;49.022;12.114;2023-05-28T05:48:31;97904.13;;;14.85;100.00
18795;BME280;29610;49.022;12.114;2023-05-28T05:50:59;97901.22;;;15.06;100.00
18795;BME280;29610;49.022;12.114;2023-05-28T05:53:30;97904.81;;;15.34;100.00
18795;BME280;29610;49.022;12.114;2023-05-28T05:55:58;97902.81;;;15.07;100.00
18795;BME280;29610;49.022;12.114;2023-05-28T05:58:29;97898.50;;;15.06;100.00
18795;BME280;29610;49.022;12.114;2023-05-28T06:00:58;97905.06;;;15.41;100.00
18795;BME280;29610;49.022;12.114;2023-05-28T06:03:28;97906.75;;;15.33;100.00
18795;BME280;29610;49.022;12.114;2023-05-28T06:06:16;97902.88;;;15.22;100.00
18795;BME280;29610;49.022;12.114;2023-05-28T06:09:12;97902.13;;;15.10;100.00
18795;BME280;29610;49.022;12.114;2023-05-28T06:12:01;97898.78;;;15.40;100.00
18795;BME280;29610;49.022;12.114;2023-05-28T06:14:30;97905.81;;;15.53;100.00
18795;BME280;29610;49.022;12.114;2023-05-28T06:16:59;97904.88;;;15.49;100.00
18795;BME280;29610;49.022;12.114;2023-05-28T06:19:29;97907.59;;;15.89;100.00
18795;BME280;29610;49.022;12.114;2023-05-28T06:21:58;97905.84;;;15.69;100.00
18795;BME280;29610;49.022;12.114;2023-05-28T06:24:26;97907.97;;;16.03;100.00
18795;BME280;29610;49.022;12.114;2023-05-28T06:26:55;97913.22;;;16.08;100.00
18795;BME280;29610;49.022;12.114;2023-05-28T06:29:24;97903.16;;;16.43;100.00
18795;BME280;29610;49.022;12.114;2023-05-28T06:31:53;97900.19;;;16.48;100.00
18795;BME280;29610;49.022;12.114;2023-05-28T06:34:21;97903.09;;;16.55;100.00
18795;BME280;29610;49.022;12.114;2023-05-28T06:36:51;97905.44;;;16.72;100.00
18795;BME280;29610;49.022;12.114;2023-05-28T06:39:20;97899.91;;;17.03;100.00
18795;BME280;29610;49.022;12.114;2023-05-28T06:41:51;97896.50;;;17.25;100.00
18795;BME280;29610;49.022;12.114;2023-05-28T06:44:29;97908.19;;;17.22;100.00
18795;BME280;29610;49.022;12.114;2023-05-28T06:47:04;97908.41;;;17.48;100.00
18795;BME280;29610;49.022;12.114;2023-05-28T06:49:33;97903.97;;;18.01;100.00
18795;BME280;29610;49.022;12.114;2023-05-28T06:52:03;97900.38;;;18.20;100.00
18795;BME280;29610;49.022;12.114;2023-05-28T06:54:32;97890.72;;;18.29;100.00
18795;BME280;29610;49.022;12.114;2023-05-28T06:57:01;97899.78;;;18.30;100.00
18795;BME280;29610;49.022;12.114;2023-05-28T06:59:45;97895.56;;;18.36;100.00
18795;BME280;29610;49.022;12.114;2023-05-28T07:02:32;97888.72;;;18.26;100.00
18795;BME280;29610;49.022;12.114;2023-05-28T07:05:24;97889.63;;;18.79;100.00
18795;BME280;29610;49.022;12.114;2023-05-28T07:07:54;97892.91;;;18.62;100.00
18795;BME280;29610;49.022;12.114;2023-05-28T07:10:23;97886.75;;;18.72;100.00
18795;BME280;29610;49.022;12.114;2023-05-28T07:12:52;97886.88;;;18.79;100.00
18795;BME280;29610;49.022;12.114;2023-05-28T07:15:20;97896.94;;;18.94;100.00
18795;BME280;29610;49.022;12.114;2023-05-28T07:17:53;97895.09;;;19.02;100.00
18795;BME280;29610;49.022;12.114;2023-05-28T07:20:21;97890.75;;;19.56;100.00
18795;BME280;29610;49.022;12.114;2023-05-28T07:22:55;97895.69;;;19.44;100.00
18795;BME280;29610;49.022;12.114;2023-05-28T07:25:24;97892.22;;;19.80;100.00
18795;BME280;29610;49.022;12.114;2023-05-28T07:27:53;97896.88;;;20.42;100.00
18795;BME280;29610;49.022;12.114;2023-05-28T07:30:27;97893.84;;;20.17;100.00
18795;BME280;29610;49.022;12.114;2023-05-28T07:32:59;97887.09;;;20.52;100.00
18795;BME280;29610;49.022;12.114;2023-05-28T07:35:28;97890.94;;;20.91;100.00
18795;BME280;29610;49.022;12.114;2023-05-28T07:37:58;97890.81;;;20.73;100.00
18795;BME280;29610;49.022;12.114;2023-05-28T07:40:27;97889.31;;;21.40;100.00
18795;BME280;29610;49.022;12.114;2023-05-28T07:43:04;97892.56;;;21.56;100.00
18795;BME280;29610;49.022;12.114;2023-05-28T07:45:32;97890.38;;;21.97;100.00
18795;BME280;29610;49.022;12.114;2023-05-28T07:48:03;97893.78;;;21.66;100.00
18795;BME280;29610;49.022;12.114;2023-05-28T07:50:46;97894.41;;;22.21;100.00
18795;BME280;29610;49.022;12.114;2023-05-28T07:53:30;97890.47;;;22.46;100.00
18795;BME280;29610;49.022;12.114;2023-05-28T07:55:59;97888.13;;;22.94;100.00
18795;BME280;29610;49.022;12.114;2023-05-28T07:58:30;97894.44;;;23.30;94.84
18795;BME280;29610;49.022;12.114;2023-05-28T08:00:59;97891.66;;;23.40;91.15
18795;BME280;29610;49.022;12.114;2023-05-28T08:03:28;97891.25;;;23.49;89.09
18795;BME280;29610;49.022;12.114;2023-05-28T08:06:00;97880.09;;;23.59;85.96
18795;BME280;29610;49.022;12.114;2023-05-28T08:08:31;97877.09;;;24.15;84.21
18795;BME280;29610;49.022;12.114;2023-05-28T08:11:00;97873.00;;;24.30;85.08
18795;BME280;29610;49.022;12.114;2023-05-28T08:13:28;97874.31;;;24.74;85.71
18795;BME280;29610;49.022;12.114;2023-05-28T08:15:59;97880.06;;;25.37;80.17
18795;BME280;29610;49.022;12.114;2023-05-28T08:18:43;97875.41;;;25.27;66.85
18795;BME280;29610;49.022;12.114;2023-05-28T08:21:11;97867.56;;;25.56;64.05
18795;BME280;29610;49.022;12.114;2023-05-28T08:23:43;97868.84;;;25.48;63.89
18795;BME280;29610;49.022;12.114;2023-05-28T08:26:11;97880.84;;;25.41;61.13
18795;BME280;29610;49.022;12.114;2023-05-28T08:28:41;97866.63;;;25.66;59.37
18795;BME280;29610;49.022;12.114;2023-05-28T08:31:10;97862.94;;;25.42;56.70
18795;BME280;29610;49.022;12.114;2023-05-28T08:34:02;97864.91;;;24.53;63.62
18795;BME280;29610;49.022;12.114;2023-05-28T08:36:32;97858.25;;;24.95;63.23
18795;BME280;29610;49.022;12.114;2023-05-28T08:39:03;97855.22;;;24.79;60.83
18795;BME280;29610;49.022;12.114;2023-05-28T08:41:33;97858.06;;;24.14;65.44
18795;BME280;29610;49.022;12.114;2023-05-28T08:44:02;97854.63;;;24.50;61.98
18795;BME280;29610;49.022;12.114;2023-05-28T08:46:32;97851.66;;;24.75;61.91
18795;BME280;29610;49.022;12.114;2023-05-28T08:49:32;97851.28;;;25.14;60.99
18795;BME280;29610;49.022;12.114;2023-05-28T08:52:04;97843.88;;;25.74;55.39
18795;BME280;29610;49.022;12.114;2023-05-28T08:54:37;97849.56;;;26.24;51.99
18795;BME280;29610;49.022;12.114;2023-05-28T08:57:08;97846.00;;;26.50;53.44
18795;BME280;29610;49.022;12.114;2023-05-28T08:59:45;97849.50;;;26.01;53.07
18795;BME280;29610;49.022;12.114;2023-05-28T09:02:15;97849.06;;;26.03;51.69
18795;BME280;29610;49.022;12.114;2023-05-28T09:04:44;97835.66;;;26.24;51.71
18795;BME280;29610;49.022;12.114;2023-05-28T09:07:14;97845.06;;;26.34;50.74
18795;BME280;29610;49.022;12.114;2023-05-28T09:09:54;97851.41;;;25.03;72.25
18795;BME280;29610;49.022;12.114;2023-05-28T09:12:27;97837.69;;;25.90;56.68
18795;BME280;29610;49.022;12.114;2023-05-28T09:15:01;97826.06;;;26.52;52.87
18795;BME280;29610;49.022;12.114;2023-05-28T09:17:36;97831.34;;;26.92;51.60
18795;BME280;29610;49.022;12.114;2023-05-28T09:20:14;97819.94;;;27.06;50.92
18795;BME280;29610;49.022;12.114;2023-05-28T09:22:44;97823.38;;;26.94;47.71
18795;BME280;29610;49.022;12.114;2023-05-28T09:25:35;97815.53;;;26.13;48.63
18795;BME280;29610;49.022;12.114;2023-05-28T09:28:14;97815.63;;;25.05;50.23
18795;BME280;29610;49.022;12.114;2023-05-28T09:30:43;97822.94;;;24.92;53.17
18795;BME280;29610;49.022;12.114;2023-05-28T09:33:11;97821.47;;;24.26;51.10
18795;BME280;29610;49.022;12.114;2023-05-28T09:35:40;97822.91;;;25.29;51.29
18795;BME280;29610;49.022;12.114;2023-05-28T09:38:11;97816.69;;;25.18;46.08
18795;BME280;29610;49.022;12.114;2023-05-28T09:40:41;97808.59;;;25.31;48.28
18795;BME280;29610;49.022;12.114;2023-05-28T09:43:11;97812.06;;;26.55;48.99
18795;BME280;29610;49.022;12.114;2023-05-28T09:45:39;97802.34;;;27.52;45.49
18795;BME280;29610;49.022;12.114;2023-05-28T09:48:08;97804.97;;;27.98;45.21
18795;BME280;29610;49.022;12.114;2023-05-28T09:50:36;97795.28;;;27.83;41.06
18795;BME280;29610;49.022;12.114;2023-05-28T09:53:06;97801.41;;;26.50;42.02
18795;BME280;29610;49.022;12.114;2023-05-28T09:55:37;97800.88;;;26.82;42.40
18795;BME280;29610;49.022;12.114;2023-05-28T09:58:08;97795.69;;;27.27;40.36
18795;BME280;29610;49.022;12.114;2023-05-28T10:00:43;97793.91;;;26.70;39.04
18795;BME280;29610;49.022;12.114;2023-05-28T10:03:21;97793.53;;;26.19;39.41
18795;BME280;29610;49.022;12.114;2023-05-28T10:05:53;97791.47;;;25.32;39.72
18795;BME280;29610;49.022;12.114;2023-05-28T10:08:24;97793.97;;;25.60;42.44
18795;BME280;29610;49.022;12.114;2023-05-28T10:10:54;97786.25;;;26.97;44.01
18795;BME280;29610;49.022;12.114;2023-05-28T10:13:26;97771.75;;;27.65;40.47
18795;BME280;29610;49.022;12.114;2023-05-28T10:15:56;97772.16;;;28.34;38.51
18795;BME280;29610;49.022;12.114;2023-05-28T10:18:26;97773.75;;;28.67;34.69
18795;BME280;29610;49.022;12.114;2023-05-28T10:20:57;97779.63;;;28.05;35.78
18795;BME280;29610;49.022;12.114;2023-05-28T10:23:26;97781.75;;;27.82;39.27
18795;BME280;29610;49.022;12.114;2023-05-28T10:25:56;97781.44;;;26.78;37.17
18795;BME280;29610;49.022;12.114;2023-05-28T10:28:29;97780.16;;;26.10;41.56
18795;BME280;29610;49.022;12.114;2023-05-28T10:31:03;97776.97;;;26.35;39.84
18795;BME280;29610;49.022;12.114;2023-05-28T10:33:38;97774.91;;;25.85;40.13
18795;BME280;29610;49.022;12.114;2023-05-28T10:36:12;97764.91;;;27.50;39.80
18795;BME280;29610;49.022;12.114;2023-05-28T10:38:43;97770.03;;;27.12;35.77
18795;BME280;29610;49.022;12.114;2023-05-28T10:41:18;97769.25;;;26.69;38.94
18795;BME280;29610;49.022;12.114;2023-05-28T10:43:51;97765.16;;;28.10;37.88
18795;BME280;29610;49.022;12.114;2023-05-28T10:46:27;97772.75;;;26.00;38.77
18795;BME280;29610;49.022;12.114;2023-05-28T10:49:14;97771.81;;;26.10;39.36
18795;BME280;29610;49.022;12.114;2023-05-28T10:51:50;97770.00;;;25.66;38.40
18795;BME280;29610;49.022;12.114;2023-05-28T10:54:39;97766.84;;;26.44;39.43
18795;BME280;29610;49.022;12.114;2023-05-28T10:57:10;97757.00;;;27.05;39.10
18795;BME280;29610;49.022;12.114;2023-05-28T10:59:45;97763.59;;;28.09;49.20
18795;BME280;29610;49.022;12.114;2023-05-28T11:02:18;97751.16;;;29.07;37.14
18795;BME280;29610;49.022;12.114;2023-05-28T11:04:54;97747.88;;;28.31;39.57
18795;BME280;29610;49.022;12.114;2023-05-28T11:07:32;97746.66;;;28.16;41.48
18795;BME280;29610;49.022;12.114;2023-05-28T11:10:03;97743.09;;;28.64;38.28
18795;BME280;29610;49.022;12.114;2023-05-28T11:12:36;97752.44;;;28.25;36.54
18795;BME280;29610;49.022;12.114;2023-05-28T11:15:09;97752.22;;;27.65;38.78
18795;BME280;29610;49.022;12.114;2023-05-28T11:29:12;97744.06;;;27.15;38.12
18795;BME280;29610;49.022;12.114;2023-05-28T11:31:42;97733.88;;;27.48;37.68
18795;BME280;29610;49.022;12.114;2023-05-28T11:34:11;97726.84;;;29.04;35.91
18795;BME280;29610;49.022;12.114;2023-05-28T11:36:42;97729.75;;;29.41;38.01
18795;BME280;29610;49.022;12.114;2023-05-28T11:39:11;97726.69;;;27.82;37.07
18795;BME280;29610;49.022;12.114;2023-05-28T11:41:40;97730.84;;;28.42;38.21
18795;BME280;29610;49.022;12.114;2023-05-28T11:44:19;97723.34;;;28.39;36.15
18795;BME280;29610;49.022;12.114;2023-05-28T11:46:53;97720.91;;;29.96;38.63
18795;BME280;29610;49.022;12.114;2023-05-28T11:49:23;97727.72;;;29.95;33.98
18795;BME280;29610;49.022;12.114;2023-05-28T11:51:51;97721.16;;;27.98;35.00
18795;BME280;29610;49.022;12.114;2023-05-28T11:54:21;97716.34;;;28.15;35.75
18795;BME280;29610;49.022;12.114;2023-05-28T11:56:50;97713.13;;;28.93;34.51
18795;BME280;29610;49.022;12.114;2023-05-28T11:59:20;97713.78;;;29.54;34.26
18795;BME280;29610;49.022;12.114;2023-05-28T12:02:09;97716.41;;;29.99;36.57
18795;BME280;29610;49.022;12.114;2023-05-28T12:04:39;97714.84;;;30.11;34.85
18795;BME280;29610;49.022;12.114;2023-05-28T12:07:07;97717.13;;;29.62;33.59
18795;BME280;29610;49.022;12.114;2023-05-28T12:09:36;97721.78;;;29.81;36.99
18795;BME280;29610;49.022;12.114;2023-05-28T12:12:09;97714.03;;;30.35;33.85
18795;BME280;29610;49.022;12.114;2023-05-28T12:14:38;97720.41;;;29.73;34.72
18795;BME280;29610;49.022;12.114;2023-05-28T12:17:09;97711.94;;;28.49;31.48
18795;BME280;29610;49.022;12.114;2023-05-28T12:19:39;97716.06;;;28.74;34.27
18795;BME280;29610;49.022;12.114;2023-05-28T12:22:14;97709.88;;;28.95;33.36
18795;BME280;29610;49.022;12.114;2023-05-28T12:24:50;97701.41;;;28.37;29.82
18795;BME280;29610;49.022;12.114;2023-05-28T12:27:20;97707.13;;;28.79;34.03
18795;BME280;29610;49.022;12.114;2023-05-28T12:29:49;97701.13;;;28.80;30.75
18795;BME280;29610;49.022;12.114;2023-05-28T12:32:19;97711.03;;;28.52;30.24
18795;BME280;29610;49.022;12.114;2023-05-28T12:34:47;97701.94;;;27.49;31.54
18795;BME280;29610;49.022;12.114;2023-05-28T12:37:17;97699.72;;;27.76;32.44
18795;BME280;29610;49.022;12.114;2023-05-28T12:39:45;97700.03;;;27.62;30.92
18795;BME280;29610;49.022;12.114;2023-05-28T12:42:14;97699.81;;;27.17;31.99
18795;BME280;29610;49.022;12.114;2023-05-28T12:44:42;97697.66;;;26.62;32.92
18795;BME280;29610;49.022;12.114;2023-05-28T12:47:11;97688.84;;;28.13;37.55
18795;BME280;29610;49.022;12.114;2023-05-28T12:49:41;97688.66;;;28.69;33.50
18795;BME280;29610;49.022;12.114;2023-05-28T12:52:09;97695.13;;;28.66;33.63
18795;BME280;29610;49.022;12.114;2023-05-28T12:54:38;97682.03;;;29.20;36.68
18795;BME280;29610;49.022;12.114;2023-05-28T12:57:07;97688.94;;;29.69;37.73
18795;BME280;29610;49.022;12.114;2023-05-28T12:59:36;97674.66;;;29.26;32.34
18795;BME280;29610;49.022;12.114;2023-05-28T13:02:04;97671.53;;;28.67;30.96
18795;BME280;29610;49.022;12.114;2023-05-28T13:04:33;97674.41;;;29.20;34.02
18795;BME280;29610;49.022;12.114;2023-05-28T13:07:03;97675.16;;;28.51;31.63
18795;BME280;29610;49.022;12.114;2023-05-28T13:09:32;97669.41;;;28.99;33.93
18795;BME280;29610;49.022;12.114;2023-05-28T13:12:00;97669.31;;;29.94;33.34
18795;BME280;29610;49.022;12.114;2023-05-28T13:14:29;97668.84;;;30.08;33.73